createdAt,value
2018-04-12T00:01:46.605Z,4.90
2018-04-12T00:04:14.173Z,4.90
2018-04-12T00:06:41.697Z,4.90
2018-04-12T00:09:09.242Z,4.90
2018-04-12T00:11:36.818Z,4.90
2018-04-12T00:14:04.355Z,4.90
2018-04-12T00:16:31.893Z,4.90
2018-04-12T00:18:59.485Z,4.90
2018-04-12T00:21:27.981Z,4.90
2018-04-12T00:23:57.225Z,4.90
2018-04-12T00:26:24.873Z,4.90
2018-04-12T00:28:53.201Z,4.90
2018-04-12T00:31:20.765Z,4.90
2018-04-12T00:33:48.437Z,4.90
2018-04-12T00:36:15.980Z,4.90
2018-04-12T00:38:43.510Z,4.90
2018-04-12T00:41:11.089Z,4.90
2018-04-12T00:43:38.621Z,5.00
2018-04-12T00:46:06.146Z,5.00
2018-04-12T00:48:34.577Z,5.00
2018-04-12T00:51:02.155Z,5.00
2018-04-12T00:53:41.576Z,5.10
2018-04-12T00:56:09.117Z,5.00
2018-04-12T00:58:36.660Z,5.00
2018-04-12T01:01:04.318Z,5.00
2018-04-12T01:03:31.865Z,5.00
2018-04-12T01:05:59.401Z,5.00
2018-04-12T01:08:28.170Z,4.90
2018-04-12T01:10:55.724Z,5.00
2018-04-12T01:13:23.252Z,5.00
2018-04-12T01:15:50.920Z,4.90
2018-04-12T01:18:18.444Z,4.90
2018-04-12T01:20:45.972Z,4.80
2018-04-12T01:23:14.408Z,4.80
2018-04-12T01:25:41.986Z,4.80
2018-04-12T01:28:09.517Z,4.80
2018-04-12T01:30:37.854Z,4.80
2018-04-12T01:33:17.268Z,4.80
2018-04-12T01:35:44.838Z,4.80
2018-04-12T01:38:12.375Z,4.80
2018-04-12T01:40:39.905Z,4.80
2018-04-12T01:43:07.482Z,4.80
2018-04-12T01:45:35.044Z,4.80
2018-04-12T01:48:02.573Z,4.90
2018-04-12T01:50:30.930Z,4.90
2018-04-12T01:52:58.460Z,4.90
2018-04-12T01:55:25.990Z,4.90
2018-04-12T01:57:53.573Z,4.90
2018-04-12T02:00:21.909Z,4.90
2018-04-12T02:02:49.432Z,4.90
2018-04-12T02:05:17.770Z,4.90
2018-04-12T02:07:45.304Z,4.90
2018-04-12T02:10:13.592Z,4.90
2018-04-12T02:12:41.931Z,4.90
2018-04-12T02:15:09.456Z,4.90
2018-04-12T02:17:36.989Z,4.90
2018-04-12T02:20:04.677Z,4.90
2018-04-12T02:22:32.210Z,4.80
2018-04-12T02:24:59.749Z,4.80
2018-04-12T02:27:27.796Z,4.80
2018-04-12T02:29:55.329Z,5.00
2018-04-12T02:32:22.871Z,4.80
2018-04-12T02:34:50.450Z,4.80
2018-04-12T02:37:17.989Z,4.80
2018-04-12T02:39:45.522Z,4.80
2018-04-12T02:42:13.098Z,4.80
2018-04-12T02:44:40.656Z,4.80
2018-04-12T02:47:08.181Z,4.80
2018-04-12T02:49:36.770Z,4.80
2018-04-12T02:52:05.085Z,4.80
2018-04-12T02:54:32.620Z,4.80
2018-04-12T02:57:00.193Z,4.80
2018-04-12T02:59:27.804Z,4.80
2018-04-12T03:01:55.349Z,4.80
2018-04-12T03:04:23.688Z,4.80
2018-04-12T03:06:51.250Z,4.80
2018-04-12T03:09:18.785Z,4.80
2018-04-12T03:11:47.128Z,4.80
2018-04-12T03:14:14.680Z,4.80
2018-04-12T03:16:42.243Z,4.80
2018-04-12T03:19:09.926Z,4.70
2018-04-12T03:21:37.473Z,4.70
2018-04-12T03:24:05.008Z,4.70
2018-04-12T03:26:32.581Z,4.70
2018-04-12T03:29:00.215Z,4.70
2018-04-12T03:31:28.771Z,4.70
2018-04-12T03:33:58.087Z,4.70
2018-04-12T03:36:26.385Z,4.70
2018-04-12T03:38:53.913Z,4.60
2018-04-12T03:41:21.505Z,4.70
2018-04-12T03:43:49.799Z,4.70
2018-04-12T03:46:18.161Z,4.60
2018-04-12T03:48:45.770Z,4.60
2018-04-12T03:51:14.068Z,4.60
2018-04-12T03:53:41.597Z,4.70
2018-04-12T03:56:09.192Z,4.60
2018-04-12T03:58:37.493Z,4.60
2018-04-12T04:01:05.020Z,4.60
2018-04-12T04:03:32.610Z,4.60
2018-04-12T04:06:00.325Z,4.60
2018-04-12T04:08:29.296Z,4.60
2018-04-12T04:10:58.027Z,4.70
2018-04-12T04:13:25.567Z,4.70
2018-04-12T04:16:05.828Z,4.70
2018-04-12T04:18:46.008Z,4.70
2018-04-12T04:21:15.053Z,4.70
2018-04-12T04:23:42.582Z,4.70
2018-04-12T04:26:10.912Z,4.90
2018-04-12T04:28:38.913Z,4.90
2018-04-12T04:31:06.445Z,5.00
2018-04-12T04:33:34.019Z,5.20
2018-04-12T04:36:01.601Z,5.20
2018-04-12T04:38:29.165Z,5.10
2018-04-12T04:40:56.705Z,5.00
2018-04-12T04:43:25.050Z,5.00
2018-04-12T04:45:52.586Z,5.00
2018-04-12T04:48:20.203Z,5.00
2018-04-12T04:50:47.769Z,5.00
2018-04-12T04:53:15.320Z,5.10
2018-04-12T04:55:42.890Z,5.10
2018-04-12T04:58:10.582Z,5.10
2018-04-12T05:00:38.213Z,5.10
2018-04-12T05:03:05.749Z,5.20
2018-04-12T05:05:33.382Z,5.20
2018-04-12T05:08:00.914Z,5.20
2018-04-12T05:10:29.213Z,5.30
2018-04-12T05:12:56.913Z,5.30
2018-04-12T05:15:24.460Z,5.40
2018-04-12T05:17:52.001Z,5.60
2018-04-12T05:20:19.589Z,5.70
2018-04-12T05:22:47.898Z,5.90
2018-04-12T05:25:15.537Z,5.90
2018-04-12T05:27:43.972Z,6.20
2018-04-12T05:30:11.518Z,6.20
2018-04-12T05:32:39.121Z,6.30
2018-04-12T05:35:06.698Z,6.40
2018-04-12T05:37:34.236Z,6.50
2018-04-12T05:40:01.800Z,6.70
2018-04-12T05:42:31.061Z,6.90
2018-04-12T05:44:58.625Z,6.90
2018-04-12T05:47:26.161Z,7.20
2018-04-12T05:49:53.843Z,7.10
2018-04-12T05:52:21.372Z,6.90
2018-04-12T05:54:49.053Z,6.90
2018-04-12T05:57:16.668Z,7.00
2018-04-12T05:59:44.247Z,7.10
2018-04-12T06:02:11.777Z,7.20
2018-04-12T06:04:40.196Z,7.60
2018-04-12T06:07:07.736Z,7.60
2018-04-12T06:09:36.049Z,8.00
2018-04-12T06:12:03.640Z,8.00
2018-04-12T06:14:31.166Z,8.30
2018-04-12T06:16:59.467Z,8.40
2018-04-12T06:19:27.824Z,8.50
2018-04-12T06:21:55.399Z,8.50
2018-04-12T06:24:23.041Z,8.90
2018-04-12T06:26:50.621Z,9.20
2018-04-12T06:29:18.173Z,9.50
2018-04-12T06:31:45.751Z,9.80
2018-04-12T06:34:13.333Z,9.90
2018-04-12T06:36:40.872Z,9.90
2018-04-12T06:39:08.476Z,9.80
2018-04-12T06:41:36.058Z,9.70
2018-04-12T06:44:03.581Z,9.50
2018-04-12T06:46:31.121Z,9.40
2018-04-12T06:48:58.705Z,9.40
2018-04-12T06:51:27.000Z,9.00
2018-04-12T06:53:55.300Z,9.20
2018-04-12T06:56:22.882Z,9.20
2018-04-12T06:58:50.445Z,9.00
2018-04-12T07:01:18.048Z,8.90
2018-04-12T07:03:45.643Z,9.10
2018-04-12T07:06:13.189Z,9.10
2018-04-12T07:08:40.757Z,8.90
2018-04-12T07:11:08.439Z,8.90
2018-04-12T07:13:35.977Z,8.80
2018-04-12T07:16:03.501Z,8.70
2018-04-12T07:18:31.329Z,8.80
2018-04-12T07:20:58.862Z,9.00
2018-04-12T07:23:27.169Z,9.20
2018-04-12T07:25:55.520Z,9.30
2018-04-12T07:28:23.040Z,9.30
2018-04-12T07:30:50.647Z,9.30
2018-04-12T07:33:18.237Z,9.20
2018-04-12T07:35:45.893Z,9.20
2018-04-12T07:38:13.426Z,9.30
2018-04-12T07:40:41.126Z,9.30
2018-04-12T07:43:08.669Z,9.50
2018-04-12T07:45:36.273Z,9.60
2018-04-12T07:48:03.874Z,9.90
2018-04-12T07:50:32.925Z,10.20
2018-04-12T07:53:01.005Z,10.20
2018-04-12T07:55:28.640Z,10.50
2018-04-12T07:57:56.149Z,10.50
2018-04-12T08:00:23.695Z,10.40
2018-04-12T08:02:51.373Z,10.20
2018-04-12T08:05:19.668Z,10.30
2018-04-12T08:07:47.957Z,10.40
2018-04-12T08:10:16.299Z,10.60
2018-04-12T08:12:43.833Z,10.60
2018-04-12T08:15:11.374Z,10.90
2018-04-12T08:17:38.969Z,11.20
2018-04-12T08:20:06.527Z,11.30
2018-04-12T08:22:34.845Z,11.00
2018-04-12T08:25:02.441Z,11.00
2018-04-12T08:27:29.987Z,11.00
2018-04-12T08:29:57.575Z,11.20
2018-04-12T08:32:25.273Z,11.50
2018-04-12T08:34:52.809Z,11.80
2018-04-12T08:37:20.342Z,11.90
2018-04-12T08:39:48.729Z,12.00
2018-04-12T08:42:17.050Z,12.00
2018-04-12T08:44:44.605Z,12.00
2018-04-12T08:47:12.949Z,12.10
2018-04-12T08:49:40.495Z,12.10
2018-04-12T08:52:08.029Z,12.10
2018-04-12T08:54:36.477Z,12.60
2018-04-12T08:57:04.036Z,12.60
2018-04-12T08:59:31.578Z,12.60
2018-04-12T09:01:59.281Z,12.70
2018-04-12T09:04:26.869Z,12.90
2018-04-12T09:06:54.528Z,13.00
2018-04-12T09:09:22.105Z,12.90
2018-04-12T09:11:49.646Z,13.00
2018-04-12T09:14:17.198Z,12.80
2018-04-12T09:16:45.542Z,13.10
2018-04-12T09:19:13.213Z,13.10
2018-04-12T09:21:40.781Z,13.10
2018-04-12T09:24:08.443Z,13.20
2018-04-12T09:26:35.977Z,13.30
2018-04-12T09:29:04.304Z,13.50
2018-04-12T09:31:31.888Z,13.50
2018-04-12T09:33:59.457Z,13.60
2018-04-12T09:36:26.997Z,13.50
2018-04-12T09:38:54.570Z,13.30
2018-04-12T09:41:22.135Z,13.30
2018-04-12T09:43:49.689Z,13.20
2018-04-12T09:46:18.059Z,13.20
2018-04-12T09:48:45.609Z,13.10
2018-04-12T09:51:13.164Z,13.20
2018-04-12T09:53:40.845Z,13.20
2018-04-12T09:56:08.400Z,13.30
2018-04-12T09:58:35.989Z,13.50
2018-04-12T10:01:09.251Z,13.50
2018-04-12T10:03:37.553Z,13.30
2018-04-12T10:06:05.080Z,13.30
2018-04-12T10:08:32.673Z,13.30
2018-04-12T10:11:08.956Z,13.20
2018-04-12T10:13:37.309Z,13.20
2018-04-12T10:16:04.853Z,13.20
2018-04-12T10:18:32.404Z,13.20
2018-04-12T10:20:59.987Z,13.10
2018-04-12T10:23:27.532Z,13.20
2018-04-12T10:25:55.838Z,13.60
2018-04-12T10:28:23.416Z,13.60
2018-04-12T10:30:50.948Z,13.80
2018-04-12T10:33:19.377Z,14.20
2018-04-12T10:35:46.962Z,14.20
2018-04-12T10:38:14.537Z,14.10
2018-04-12T10:40:42.206Z,14.20
2018-04-12T10:43:09.793Z,14.20
2018-04-12T10:45:37.326Z,14.10
2018-04-12T10:48:04.857Z,14.00
2018-04-12T10:50:32.516Z,13.90
2018-04-12T10:53:00.074Z,14.00
2018-04-12T10:55:27.656Z,14.30
2018-04-12T10:57:55.255Z,14.40
2018-04-12T11:00:23.621Z,14.40
2018-04-12T11:02:51.149Z,14.40
2018-04-12T11:05:18.763Z,14.50
2018-04-12T11:07:46.303Z,14.70
2018-04-12T11:10:13.844Z,14.60
2018-04-12T11:12:42.274Z,14.80
2018-04-12T11:15:09.865Z,14.80
2018-04-12T11:17:37.511Z,14.80
2018-04-12T11:20:05.092Z,14.70
2018-04-12T11:22:32.626Z,14.60
2018-04-12T11:25:01.861Z,14.60
2018-04-12T11:27:29.445Z,14.60
2018-04-12T11:29:57.001Z,14.60
2018-04-12T11:32:24.545Z,14.30
2018-04-12T11:34:52.888Z,14.40
2018-04-12T11:37:20.426Z,14.40
2018-04-12T11:39:47.972Z,14.60
2018-04-12T11:42:16.324Z,14.60
2018-04-12T11:44:43.965Z,14.60
2018-04-12T11:47:11.509Z,14.70
2018-04-12T11:49:39.873Z,14.90
2018-04-12T11:52:07.412Z,14.90
2018-04-12T11:54:34.957Z,15.00
2018-04-12T11:57:02.532Z,15.10
2018-04-12T11:59:30.065Z,15.10
2018-04-12T12:01:57.592Z,15.00
2018-04-12T12:04:25.169Z,15.00
2018-04-12T12:06:52.739Z,14.90
2018-04-12T12:09:20.277Z,14.90
2018-04-12T12:11:48.627Z,14.90
2018-04-12T12:14:16.221Z,14.90
2018-04-12T12:16:44.688Z,15.00
2018-04-12T12:19:12.337Z,14.90
2018-04-12T12:21:40.617Z,14.90
2018-04-12T12:24:08.144Z,14.90
2018-04-12T12:26:35.732Z,14.80
2018-04-12T12:29:04.044Z,14.70
2018-04-12T12:31:32.168Z,14.70
2018-04-12T12:33:59.743Z,14.70
2018-04-12T12:36:27.280Z,14.70
2018-04-12T12:38:54.821Z,14.70
2018-04-12T12:41:22.401Z,14.70
2018-04-12T12:43:49.938Z,14.70
2018-04-12T12:46:18.245Z,14.60
2018-04-12T12:48:46.593Z,14.70
2018-04-12T12:51:14.134Z,14.60
2018-04-12T12:53:41.689Z,14.70
2018-04-12T12:56:09.296Z,14.60
2018-04-12T12:58:36.827Z,14.60
2018-04-12T13:01:05.133Z,14.50
2018-04-12T13:03:32.713Z,14.50
2018-04-12T13:06:00.257Z,14.60
2018-04-12T13:08:28.581Z,14.70
2018-04-12T13:10:56.260Z,14.60
2018-04-12T13:13:23.850Z,14.70
2018-04-12T13:15:51.380Z,14.70
2018-04-12T13:18:18.960Z,14.60
2018-04-12T13:20:46.506Z,14.70
2018-04-12T13:23:14.814Z,14.80
2018-04-12T13:25:42.408Z,14.80
2018-04-12T13:28:09.948Z,14.90
2018-04-12T13:30:37.485Z,14.90
2018-04-12T13:33:05.091Z,14.80
2018-04-12T13:35:32.642Z,14.70
2018-04-12T13:38:00.944Z,14.60
2018-04-12T13:40:28.527Z,14.60
2018-04-12T13:42:56.069Z,14.60
2018-04-12T13:45:24.436Z,14.70
2018-04-12T13:47:52.024Z,14.70
2018-04-12T13:50:20.324Z,14.70
2018-04-12T13:52:48.630Z,14.60
2018-04-12T13:55:16.233Z,14.60
2018-04-12T13:57:43.765Z,14.70
2018-04-12T14:00:11.299Z,14.70
2018-04-12T14:02:38.879Z,14.80
2018-04-12T14:05:06.409Z,14.90
2018-04-12T14:07:33.942Z,14.90
2018-04-12T14:10:03.212Z,15.20
2018-04-12T14:12:30.752Z,15.20
2018-04-12T14:14:58.285Z,15.00
2018-04-12T14:17:26.625Z,15.10
2018-04-12T14:19:54.159Z,15.10
2018-04-12T14:22:21.706Z,15.20
2018-04-12T14:24:50.045Z,15.20
2018-04-12T14:27:17.598Z,15.20
2018-04-12T14:29:45.204Z,15.30
2018-04-12T14:32:12.887Z,15.40
2018-04-12T14:34:40.428Z,15.50
2018-04-12T14:37:07.971Z,15.60
2018-04-12T14:39:36.317Z,15.80
2018-04-12T14:42:03.901Z,15.80
2018-04-12T14:44:31.417Z,15.90
2018-04-12T14:46:59.125Z,16.00
2018-04-12T14:49:26.775Z,16.00
2018-04-12T14:51:54.353Z,16.10
2018-04-12T14:54:21.951Z,16.20
2018-04-12T14:56:49.485Z,16.10
2018-04-12T14:59:17.030Z,16.10
2018-04-12T15:01:45.383Z,16.20
2018-04-12T15:04:12.912Z,16.20
2018-04-12T15:06:40.444Z,16.30
2018-04-12T15:09:08.020Z,16.30
2018-04-12T15:11:36.320Z,16.20
2018-04-12T15:14:04.632Z,16.10
2018-04-12T15:16:32.230Z,16.10
2018-04-12T15:18:59.776Z,16.20
2018-04-12T15:21:27.309Z,16.30
2018-04-12T15:23:54.889Z,16.30
2018-04-12T15:26:23.222Z,16.30
2018-04-12T15:28:50.788Z,16.30
2018-04-12T15:31:18.379Z,16.30
2018-04-12T15:33:45.932Z,16.30
2018-04-12T15:36:13.489Z,16.30
2018-04-12T15:38:41.073Z,16.20
2018-04-12T15:41:08.623Z,16.20
2018-04-12T15:43:36.202Z,16.20
2018-04-12T15:46:04.725Z,16.30
2018-04-12T15:48:32.385Z,16.30
2018-04-12T15:50:59.967Z,16.40
2018-04-12T15:53:27.622Z,16.40
2018-04-12T15:55:55.170Z,16.40
2018-04-12T15:58:22.713Z,16.40
2018-04-12T16:00:50.423Z,16.50
2018-04-12T16:03:17.970Z,16.60
2018-04-12T16:05:45.555Z,16.50
2018-04-12T16:08:13.153Z,16.60
2018-04-12T16:10:40.685Z,16.50
2018-04-12T16:13:08.976Z,16.40
2018-04-12T16:15:37.410Z,16.30
2018-04-12T16:18:04.972Z,16.20
2018-04-12T16:20:32.518Z,16.20
2018-04-12T16:23:00.105Z,16.20
2018-04-12T16:25:27.653Z,16.20
2018-04-12T16:27:55.962Z,16.30
2018-04-12T16:30:23.539Z,16.30
2018-04-12T16:32:51.123Z,16.30
2018-04-12T16:35:18.698Z,16.30
2018-04-12T16:37:46.291Z,16.30
2018-04-12T16:40:13.857Z,16.20
2018-04-12T16:42:41.504Z,16.20
2018-04-12T16:45:09.198Z,16.10
2018-04-12T16:47:36.848Z,15.90
2018-04-12T16:50:04.390Z,15.80
2018-04-12T16:52:32.751Z,15.20
2018-04-12T16:55:00.291Z,15.40
2018-04-12T16:57:27.826Z,15.20
2018-04-12T16:59:56.176Z,15.10
2018-04-12T17:02:23.720Z,15.00
2018-04-12T17:04:51.284Z,15.10
2018-04-12T17:07:18.945Z,15.00
2018-04-12T17:09:46.481Z,15.00
2018-04-12T17:12:14.801Z,14.80
2018-04-12T17:14:42.486Z,14.80
2018-04-12T17:17:10.025Z,14.80
2018-04-12T17:19:38.550Z,14.60
2018-04-12T17:22:06.157Z,14.60
2018-04-12T17:24:35.241Z,14.30
2018-04-12T17:27:02.776Z,14.30
2018-04-12T17:29:31.143Z,14.10
2018-04-12T17:31:58.705Z,14.10
2018-04-12T17:34:26.245Z,14.00
2018-04-12T17:36:54.017Z,13.90
2018-04-12T17:39:21.592Z,13.80
2018-04-12T17:41:50.155Z,13.70
2018-04-12T17:44:17.869Z,13.60
2018-04-12T17:46:45.405Z,13.50
2018-04-12T17:49:14.319Z,13.40
2018-04-12T17:51:41.905Z,13.30
2018-04-12T17:54:09.516Z,13.30
2018-04-12T17:56:37.065Z,13.20
2018-04-12T17:59:04.663Z,13.10
2018-04-12T18:01:33.005Z,12.80
2018-04-12T18:04:00.629Z,12.80
2018-04-12T18:06:28.233Z,12.70
2018-04-12T18:08:55.827Z,12.60
2018-04-12T18:11:23.360Z,12.60
2018-04-12T18:13:51.859Z,12.50
2018-04-12T18:16:20.265Z,12.30
2018-04-12T18:18:47.846Z,12.30
2018-04-12T18:21:15.432Z,12.20
2018-04-12T18:23:42.990Z,12.20
2018-04-12T18:26:10.533Z,12.10
2018-04-12T18:28:38.888Z,11.90
2018-04-12T18:31:06.417Z,11.90
2018-04-12T18:33:34.880Z,11.80
2018-04-12T18:36:03.232Z,11.60
2018-04-12T18:38:30.789Z,11.60
2018-04-12T18:40:58.336Z,11.60
2018-04-12T18:43:25.920Z,11.50
2018-04-12T18:45:53.457Z,11.40
2018-04-12T18:48:21.788Z,11.40
2018-04-12T18:50:49.399Z,11.30
2018-04-12T18:53:16.961Z,11.30
2018-04-12T18:55:44.496Z,11.20
2018-04-12T18:58:12.119Z,11.20
2018-04-12T19:00:39.830Z,11.10
2018-04-12T19:03:07.381Z,11.00
2018-04-12T19:05:36.103Z,11.00
2018-04-12T19:08:03.634Z,11.00
2018-04-12T19:10:31.193Z,10.90
2018-04-12T19:12:58.775Z,10.80
2018-04-12T19:15:27.113Z,10.70
2018-04-12T19:17:54.667Z,10.70
2018-04-12T19:20:23.581Z,10.60
2018-04-12T19:22:51.285Z,10.60
2018-04-12T19:25:18.861Z,10.50
2018-04-12T19:27:47.225Z,10.60
2018-04-12T19:30:14.766Z,10.40
2018-04-12T19:32:43.452Z,10.40
2018-04-12T19:35:11.085Z,10.30
2018-04-12T19:37:38.629Z,10.30
2018-04-12T19:40:06.176Z,10.30
2018-04-12T19:42:35.445Z,10.20
2018-04-12T19:45:02.979Z,10.20
2018-04-12T19:47:30.517Z,10.20
2018-04-12T19:49:58.872Z,10.10
2018-04-12T19:52:26.512Z,10.10
2018-04-12T19:54:54.182Z,10.00
2018-04-12T19:57:21.858Z,10.00
2018-04-12T19:59:49.495Z,9.90
2018-04-12T20:02:17.019Z,9.90
2018-04-12T20:04:44.618Z,9.90
2018-04-12T20:07:12.168Z,9.80
2018-04-12T20:09:39.702Z,9.80
2018-04-12T20:12:08.041Z,9.80
2018-04-12T20:14:35.577Z,9.80
2018-04-12T20:17:03.116Z,9.80
2018-04-12T20:19:31.458Z,9.80
2018-04-12T20:21:58.989Z,9.80
2018-04-12T20:24:26.590Z,9.80
2018-04-12T20:26:54.182Z,9.80
2018-04-12T20:29:21.728Z,9.80
2018-04-12T20:31:49.263Z,9.80
2018-04-12T20:34:17.607Z,9.80
2018-04-12T20:36:45.145Z,9.80
2018-04-12T20:39:13.131Z,9.80
2018-04-12T20:41:40.714Z,9.80
2018-04-12T20:44:08.245Z,9.80
2018-04-12T20:46:36.549Z,9.80
2018-04-12T20:49:04.128Z,9.80
2018-04-12T20:51:31.716Z,9.80
2018-04-12T20:53:59.240Z,9.80
2018-04-12T20:56:27.591Z,9.80
2018-04-12T20:58:55.169Z,9.80
2018-04-12T21:01:22.710Z,9.80
2018-04-12T21:03:50.301Z,9.80
2018-04-12T21:06:17.830Z,9.90
2018-04-12T21:08:46.157Z,9.90
2018-04-12T21:11:13.757Z,9.90
2018-04-12T21:13:42.801Z,9.90
2018-04-12T21:16:10.344Z,9.90
2018-04-12T21:18:37.970Z,9.90
2018-04-12T21:21:05.757Z,9.90
2018-04-12T21:23:33.281Z,9.90
2018-04-12T21:26:01.826Z,9.90
2018-04-12T21:28:29.355Z,9.90
2018-04-12T21:30:56.953Z,9.90
2018-04-12T21:33:24.533Z,9.90
2018-04-12T21:35:52.069Z,9.90
2018-04-12T21:38:19.609Z,9.90
2018-04-12T21:40:47.184Z,9.90
2018-04-12T21:43:14.725Z,9.80
2018-04-12T21:45:42.259Z,9.80
2018-04-12T21:48:09.948Z,9.80
2018-04-12T21:50:37.468Z,9.80
2018-04-12T21:53:05.925Z,9.80
2018-04-12T21:55:33.588Z,9.80
2018-04-12T21:58:01.128Z,9.80
2018-04-12T22:00:28.668Z,9.70
2018-04-12T22:02:56.308Z,9.70
2018-04-12T22:05:23.847Z,9.70
2018-04-12T22:07:51.441Z,9.70
2018-04-12T22:10:19.109Z,9.70
2018-04-12T22:12:46.642Z,9.60
2018-04-12T22:15:14.949Z,9.60
2018-04-12T22:17:42.527Z,9.60
2018-04-12T22:20:10.057Z,9.60
2018-04-12T22:22:37.654Z,9.60
2018-04-12T22:25:06.064Z,9.60
2018-04-12T22:27:33.588Z,9.60
2018-04-12T22:30:01.228Z,9.60
2018-04-12T22:32:28.815Z,9.60
2018-04-12T22:34:56.348Z,9.60
2018-04-12T22:37:23.934Z,9.60
2018-04-12T22:39:51.515Z,9.60
2018-04-12T22:42:19.070Z,9.60
2018-04-12T22:44:46.613Z,9.60
2018-04-12T22:47:14.972Z,9.60
2018-04-12T22:49:44.051Z,9.50
2018-04-12T22:52:11.610Z,9.50
2018-04-12T22:54:39.854Z,9.60
2018-04-12T22:57:08.160Z,9.50
2018-04-12T22:59:37.398Z,9.50
2018-04-12T23:02:04.993Z,9.50
2018-04-12T23:04:32.537Z,9.50
2018-04-12T23:07:00.087Z,9.50
2018-04-12T23:09:27.688Z,9.50
2018-04-12T23:11:55.221Z,9.50
2018-04-12T23:14:23.523Z,9.50
2018-04-12T23:16:51.102Z,9.50
2018-04-12T23:19:18.634Z,9.50
2018-04-12T23:21:46.937Z,9.50
2018-04-12T23:24:15.278Z,9.40
2018-04-12T23:26:42.813Z,9.40
2018-04-12T23:29:10.362Z,9.40
2018-04-12T23:31:38.707Z,9.40
2018-04-12T23:34:06.239Z,9.40
2018-04-12T23:36:33.834Z,9.40
2018-04-12T23:39:01.609Z,9.40
2018-04-12T23:41:29.140Z,9.40
2018-04-12T23:43:57.428Z,9.40
2018-04-12T23:46:25.775Z,9.40
2018-04-12T23:48:53.306Z,9.40
2018-04-12T23:51:20.896Z,9.40
2018-04-12T23:53:48.479Z,9.30
2018-04-12T23:56:16.026Z,9.30
2018-04-12T23:58:43.621Z,9.40
